createdAt,value
2018-07-09T00:00:29.812Z,98101.52
2018-07-09T00:01:01.394Z,98098.95
2018-07-09T00:01:32.993Z,98100.24
2018-07-09T00:02:04.577Z,98103.65
2018-07-09T00:02:36.153Z,98103.70
2018-07-09T00:03:07.754Z,98100.29
2018-07-09T00:03:39.390Z,98102.43
2018-07-09T00:04:10.970Z,98100.71
2018-07-09T00:04:42.540Z,98096.45
2018-07-09T00:05:14.117Z,98101.15
2018-07-09T00:05:45.717Z,98100.72
2018-07-09T00:06:17.376Z,98100.31
2018-07-09T00:06:48.963Z,98105.02
2018-07-09T00:07:20.560Z,98103.31
2018-07-09T00:07:52.140Z,98101.64
2018-07-09T00:08:23.740Z,98103.31
2018-07-09T00:08:55.377Z,98103.78
2018-07-09T00:09:26.958Z,98102.08
2018-07-09T00:09:58.557Z,98103.31
2018-07-09T00:10:30.170Z,98103.36
2018-07-09T00:11:01.772Z,98101.66
2018-07-09T00:11:33.389Z,98103.80
2018-07-09T00:12:04.974Z,98105.08
2018-07-09T00:12:36.573Z,98106.36
2018-07-09T00:13:08.214Z,98108.05
2018-07-09T00:13:39.818Z,98101.67
2018-07-09T00:14:11.421Z,98104.70
2018-07-09T00:14:43.028Z,98105.14
2018-07-09T00:15:14.596Z,98100.45
2018-07-09T00:15:46.174Z,98103.02
2018-07-09T00:16:17.781Z,98099.16
2018-07-09T00:16:49.370Z,98099.89
2018-07-09T00:17:20.954Z,98100.23
2018-07-09T00:17:52.597Z,98099.71
2018-07-09T00:18:24.183Z,98097.08
2018-07-09T00:18:55.762Z,98094.01
2018-07-09T00:19:27.400Z,98103.38
2018-07-09T00:19:58.985Z,98106.31
2018-07-09T00:20:30.565Z,98094.34
2018-07-09T00:21:02.141Z,98095.19
2018-07-09T00:21:33.721Z,98091.78
2018-07-09T00:22:05.324Z,98094.34
2018-07-09T00:22:36.959Z,98097.77
2018-07-09T00:23:08.552Z,98103.75
2018-07-09T00:23:40.133Z,98103.33
2018-07-09T00:24:11.740Z,98090.97
2018-07-09T00:24:43.357Z,98097.36
2018-07-09T00:25:14.934Z,98100.41
2018-07-09T00:25:46.513Z,98094.38
2018-07-09T00:26:18.093Z,98094.81
2018-07-09T00:26:49.777Z,98098.70
2018-07-09T00:27:21.347Z,98091.88
2018-07-09T00:27:52.950Z,98095.34
2018-07-09T00:28:24.543Z,98088.55
2018-07-09T00:28:56.129Z,98097.59
2018-07-09T00:29:27.729Z,98096.81
2018-07-09T00:29:59.368Z,98101.16
2018-07-09T00:30:30.950Z,98098.27
2018-07-09T00:31:02.547Z,98096.19
2018-07-09T00:31:34.153Z,98097.97
2018-07-09T00:32:05.760Z,98100.17
2018-07-09T00:32:37.369Z,98098.92
2018-07-09T00:33:08.950Z,98098.97
2018-07-09T00:33:40.533Z,98101.97
2018-07-09T00:34:12.141Z,98099.47
2018-07-09T00:34:43.766Z,98104.17
2018-07-09T00:35:15.349Z,98097.79
2018-07-09T00:35:46.933Z,98100.39
2018-07-09T00:36:18.517Z,98095.28
2018-07-09T00:36:50.123Z,98097.83
2018-07-09T00:37:21.697Z,98099.11
2018-07-09T00:37:53.303Z,98101.20
2018-07-09T00:38:24.889Z,98098.21
2018-07-09T00:38:56.522Z,98098.21
2018-07-09T00:39:28.104Z,98101.63
2018-07-09T00:39:59.713Z,98099.12
2018-07-09T00:40:31.326Z,98103.39
2018-07-09T00:41:02.927Z,98101.27
2018-07-09T00:41:34.533Z,98098.30
2018-07-09T00:42:06.104Z,98097.92
2018-07-09T00:42:37.705Z,98101.75
2018-07-09T00:43:09.305Z,98100.06
2018-07-09T00:43:40.885Z,98097.08
2018-07-09T00:44:12.500Z,98096.28
2018-07-09T00:44:44.102Z,98097.98
2018-07-09T00:45:15.685Z,98092.45
2018-07-09T00:45:47.261Z,98091.62
2018-07-09T00:46:18.910Z,98092.04
2018-07-09T00:46:50.497Z,98093.75
2018-07-09T00:47:22.082Z,98089.47
2018-07-09T00:47:53.685Z,98089.89
2018-07-09T00:48:25.270Z,98088.61
2018-07-09T00:48:56.849Z,98094.16
2018-07-09T00:49:28.433Z,98091.59
2018-07-09T00:50:00.011Z,98091.59
2018-07-09T00:50:31.592Z,98094.14
2018-07-09T00:51:03.259Z,98095.42
2018-07-09T00:51:34.837Z,98092.86
2018-07-09T00:52:06.418Z,98089.02
2018-07-09T00:52:38.070Z,98086.46
2018-07-09T00:53:09.665Z,98086.05
2018-07-09T00:53:41.250Z,98089.48
2018-07-09T00:54:12.845Z,98086.08
2018-07-09T00:54:44.420Z,98089.52
2018-07-09T00:55:16.026Z,98085.27
2018-07-09T00:55:47.610Z,98091.67
2018-07-09T00:56:19.180Z,98088.26
2018-07-09T00:56:50.758Z,98085.67
2018-07-09T00:57:22.332Z,98088.26
2018-07-09T00:57:53.933Z,98085.27
2018-07-09T00:58:25.531Z,98083.99
2018-07-09T00:58:57.135Z,98084.83
2018-07-09T00:59:28.745Z,98086.97
2018-07-09T01:00:00.318Z,98087.83
2018-07-09T01:00:31.901Z,98090.81
2018-07-09T01:01:03.503Z,98087.44
2018-07-09T01:01:35.148Z,98088.73
2018-07-09T01:02:06.765Z,98090.44
2018-07-09T01:02:38.346Z,98081.92
2018-07-09T01:03:09.935Z,98087.03
2018-07-09T01:03:41.537Z,98085.76
2018-07-09T01:04:13.118Z,98083.62
2018-07-09T01:04:44.708Z,98082.82
2018-07-09T01:05:16.298Z,98081.55
2018-07-09T01:05:47.881Z,98085.83
2018-07-09T01:06:19.480Z,98088.40
2018-07-09T01:06:51.114Z,98081.62
2018-07-09T01:07:22.689Z,98086.73
2018-07-09T01:07:54.285Z,98088.03
2018-07-09T01:08:25.875Z,98086.31
2018-07-09T01:08:57.444Z,98085.47
2018-07-09T01:09:29.035Z,98084.18
2018-07-09T01:10:00.621Z,98084.61
2018-07-09T01:10:32.205Z,98079.07
2018-07-09T01:11:03.858Z,98078.66
2018-07-09T01:11:35.408Z,98085.06
2018-07-09T01:12:07.358Z,98084.25
2018-07-09T01:12:38.937Z,98079.14
2018-07-09T01:13:10.540Z,98083.41
2018-07-09T01:13:42.145Z,98084.25
2018-07-09T01:14:13.739Z,98085.11
2018-07-09T01:14:45.317Z,98083.83
2018-07-09T01:15:16.883Z,98076.17
2018-07-09T01:15:48.465Z,98079.16
2018-07-09T01:16:20.073Z,98081.29
2018-07-09T01:16:51.677Z,98081.34
2018-07-09T01:17:23.288Z,98080.08
2018-07-09T01:17:54.868Z,98079.22
2018-07-09T01:18:26.474Z,98083.93
2018-07-09T01:18:58.081Z,98085.63
2018-07-09T01:19:29.685Z,98084.34
2018-07-09T01:20:01.267Z,98078.36
2018-07-09T01:20:32.848Z,98081.71
2018-07-09T01:21:04.451Z,98082.50
2018-07-09T01:21:36.092Z,98085.06
2018-07-09T01:22:07.693Z,98077.80
2018-07-09T01:22:39.272Z,98083.78
2018-07-09T01:23:10.878Z,98080.80
2018-07-09T01:23:42.471Z,98079.93
2018-07-09T01:24:14.044Z,98078.22
2018-07-09T01:24:45.622Z,98078.22
2018-07-09T01:25:17.206Z,98082.92
2018-07-09T01:25:48.789Z,98077.42
2018-07-09T01:26:20.371Z,98076.95
2018-07-09T01:26:51.999Z,98076.56
2018-07-09T01:27:23.610Z,98074.01
2018-07-09T01:27:55.217Z,98082.98
2018-07-09T01:28:26.830Z,98075.30
2018-07-09T01:28:58.427Z,98080.43
2018-07-09T01:29:30.038Z,98081.72
2018-07-09T01:30:01.645Z,98075.79
2018-07-09T01:30:33.216Z,98083.05
2018-07-09T01:31:04.841Z,98080.91
2018-07-09T01:31:36.436Z,98078.38
2018-07-09T01:32:08.037Z,98082.63
2018-07-09T01:32:39.632Z,98072.87
2018-07-09T01:33:11.214Z,98075.02
2018-07-09T01:33:42.816Z,98068.19
2018-07-09T01:34:14.399Z,98070.33
2018-07-09T01:34:45.972Z,98074.16
2018-07-09T01:35:17.564Z,98072.05
2018-07-09T01:35:49.168Z,98072.47
2018-07-09T01:36:20.804Z,98072.48
2018-07-09T01:36:52.440Z,98072.97
2018-07-09T01:37:24.043Z,98073.39
2018-07-09T01:37:55.651Z,98076.80
2018-07-09T01:38:27.238Z,98074.19
2018-07-09T01:38:58.842Z,98076.31
2018-07-09T01:39:30.425Z,98074.19
2018-07-09T01:40:02.021Z,98075.87
2018-07-09T01:40:33.596Z,98071.17
2018-07-09T01:41:05.172Z,98073.25
2018-07-09T01:41:36.793Z,98069.40
2018-07-09T01:42:08.397Z,98063.53
2018-07-09T01:42:40.001Z,98073.23
2018-07-09T01:43:11.572Z,98068.13
2018-07-09T01:43:43.147Z,98071.55
2018-07-09T01:44:14.734Z,98066.85
2018-07-09T01:44:46.324Z,98068.14
2018-07-09T01:45:17.915Z,98071.19
2018-07-09T01:45:49.521Z,98071.55
2018-07-09T01:46:21.177Z,98065.41
2018-07-09T01:46:52.751Z,98064.05
2018-07-09T01:47:24.333Z,98067.13
2018-07-09T01:47:55.918Z,98066.93
2018-07-09T01:48:27.501Z,98070.69
2018-07-09T01:48:59.095Z,98068.06
2018-07-09T01:49:30.757Z,98064.38
2018-07-09T01:50:02.341Z,98069.50
2018-07-09T01:50:33.926Z,98062.97
2018-07-09T01:51:05.520Z,98062.82
2018-07-09T01:51:37.145Z,98067.30
2018-07-09T01:52:08.712Z,98062.45
2018-07-09T01:52:40.332Z,98064.86
2018-07-09T01:53:11.917Z,98064.29
2018-07-09T01:53:44.434Z,98067.55
2018-07-09T01:54:16.033Z,98069.11
2018-07-09T01:54:47.637Z,98068.62
2018-07-09T01:55:19.242Z,98059.16
2018-07-09T01:55:50.945Z,98065.91
2018-07-09T01:56:22.573Z,98063.27
2018-07-09T01:56:54.164Z,98060.22
2018-07-09T01:57:25.770Z,98066.13
2018-07-09T01:57:57.363Z,98064.40
2018-07-09T01:58:28.957Z,98065.63
2018-07-09T01:59:00.561Z,98064.31
2018-07-09T01:59:32.165Z,98062.98
2018-07-09T02:00:03.736Z,98062.98
2018-07-09T02:00:35.345Z,98067.22
2018-07-09T02:01:06.953Z,98066.31
2018-07-09T02:01:38.538Z,98062.45
2018-07-09T02:02:10.170Z,98065.00
2018-07-09T02:02:41.774Z,98057.28
2018-07-09T02:03:13.385Z,98058.56
2018-07-09T02:03:45.026Z,98056.84
2018-07-09T02:04:16.609Z,98057.25
2018-07-09T02:04:48.214Z,98058.95
2018-07-09T02:05:19.896Z,98059.39
2018-07-09T02:05:51.473Z,98053.83
2018-07-09T02:06:23.042Z,98054.64
2018-07-09T02:06:54.922Z,98057.63
2018-07-09T02:07:26.570Z,98057.19
2018-07-09T02:07:58.149Z,98058.47
2018-07-09T02:08:29.751Z,98053.77
2018-07-09T02:09:01.377Z,98058.47
2018-07-09T02:09:32.958Z,98055.47
2018-07-09T02:10:04.557Z,98060.17
2018-07-09T02:10:36.154Z,98056.73
2018-07-09T02:11:07.742Z,98056.73
2018-07-09T02:11:39.336Z,98055.04
2018-07-09T02:12:10.912Z,98055.04
2018-07-09T02:12:42.493Z,98057.16
2018-07-09T02:13:14.060Z,98053.74
2018-07-09T02:13:45.668Z,98060.10
2018-07-09T02:14:17.280Z,98052.42
2018-07-09T02:14:48.905Z,98053.28
2018-07-09T02:15:20.505Z,98057.53
2018-07-09T02:15:52.095Z,98050.70
2018-07-09T02:16:23.695Z,98053.70
2018-07-09T02:16:55.268Z,98053.70
2018-07-09T02:17:26.873Z,98055.41
2018-07-09T02:17:58.457Z,98058.38
2018-07-09T02:18:30.061Z,98059.24
2018-07-09T02:19:01.678Z,98054.97
2018-07-09T02:19:33.315Z,98055.81
2018-07-09T02:20:04.921Z,98055.39
2018-07-09T02:20:36.510Z,98059.22
2018-07-09T02:21:08.102Z,98053.62
2018-07-09T02:21:39.685Z,98056.59
2018-07-09T02:22:11.352Z,98056.15
2018-07-09T02:22:42.973Z,98061.64
2018-07-09T02:23:14.550Z,98059.93
2018-07-09T02:23:46.120Z,98056.50
2018-07-09T02:24:17.711Z,98059.02
2018-07-09T02:24:49.303Z,98061.12
2018-07-09T02:25:20.888Z,98057.28
2018-07-09T02:25:52.494Z,98056.00
2018-07-09T02:26:24.101Z,98053.45
2018-07-09T02:26:55.706Z,98052.17
2018-07-09T02:27:27.309Z,98057.30
2018-07-09T02:27:58.907Z,98057.28
2018-07-09T02:28:30.494Z,98056.00
2018-07-09T02:29:02.078Z,98054.28
2018-07-09T02:29:33.667Z,98057.27
2018-07-09T02:30:05.243Z,98056.00
2018-07-09T02:30:36.881Z,98055.14
2018-07-09T02:31:08.485Z,98057.30
2018-07-09T02:31:40.081Z,98056.38
2018-07-09T02:32:11.679Z,98055.52
2018-07-09T02:32:43.253Z,98060.18
2018-07-09T02:33:14.843Z,98056.29
2018-07-09T02:33:46.420Z,98059.67
2018-07-09T02:34:17.992Z,98057.48
2018-07-09T02:34:49.560Z,98056.98
2018-07-09T02:35:21.162Z,98059.55
2018-07-09T02:35:52.785Z,98058.25
2018-07-09T02:36:24.374Z,98057.39
2018-07-09T02:36:55.964Z,98058.23
2018-07-09T02:37:27.560Z,98058.60
2018-07-09T02:37:59.155Z,98055.18
2018-07-09T02:38:30.771Z,98056.03
2018-07-09T02:39:02.377Z,98059.01
2018-07-09T02:39:33.996Z,98052.60
2018-07-09T02:40:05.574Z,98055.58
2018-07-09T02:40:37.177Z,98053.02
2018-07-09T02:41:08.782Z,98050.84
2018-07-09T02:41:40.389Z,98059.81
2018-07-09T02:42:12.050Z,98041.99
2018-07-09T02:42:43.646Z,98053.83
2018-07-09T02:43:15.225Z,98052.11
2018-07-09T02:43:46.828Z,98053.81
2018-07-09T02:44:18.436Z,98051.25
2018-07-09T02:44:50.105Z,98052.53
2018-07-09T02:45:21.694Z,98049.11
2018-07-09T02:45:53.284Z,98056.36
2018-07-09T02:46:24.873Z,98050.39
2018-07-09T02:46:56.467Z,98055.08
2018-07-09T02:47:28.078Z,98058.92
2018-07-09T02:47:59.665Z,98056.31
2018-07-09T02:48:31.255Z,98057.59
2018-07-09T02:49:02.873Z,98058.44
2018-07-09T02:49:34.492Z,98051.59
2018-07-09T02:50:06.145Z,98058.42
2018-07-09T02:50:37.719Z,98051.16
2018-07-09T02:51:09.309Z,98055.42
2018-07-09T02:51:40.886Z,98056.30
2018-07-09T02:52:12.470Z,98055.86
2018-07-09T02:52:44.061Z,98061.41
2018-07-09T02:53:15.642Z,98058.84
2018-07-09T02:53:47.297Z,98055.86
2018-07-09T02:54:18.906Z,98057.58
2018-07-09T02:54:50.490Z,98060.14
2018-07-09T02:55:22.084Z,98058.44
2018-07-09T02:55:53.666Z,98064.84
2018-07-09T02:56:25.269Z,98059.77
2018-07-09T02:56:56.878Z,98057.16
2018-07-09T02:57:28.451Z,98055.88
2018-07-09T02:58:00.042Z,98063.14
2018-07-09T02:58:31.613Z,98062.70
2018-07-09T02:59:03.262Z,98060.56
2018-07-09T02:59:34.917Z,98061.41
2018-07-09T03:00:06.492Z,98057.56
2018-07-09T03:00:38.116Z,98059.28
2018-07-09T03:01:09.892Z,98058.86
2018-07-09T03:01:41.331Z,98055.44
2018-07-09T03:02:12.904Z,98063.13
2018-07-09T03:02:44.489Z,98058.00
2018-07-09T03:03:16.106Z,98059.27
2018-07-09T03:03:47.701Z,98059.27
2018-07-09T03:04:19.313Z,98057.98
2018-07-09T03:04:50.973Z,98055.42
2018-07-09T03:05:22.585Z,98062.25
2018-07-09T03:05:54.164Z,98055.42
2018-07-09T03:06:25.746Z,98061.83
2018-07-09T03:06:57.326Z,98061.41
2018-07-09T03:07:28.905Z,98061.83
2018-07-09T03:08:00.490Z,98060.55
2018-07-09T03:08:32.079Z,98061.84
2018-07-09T03:09:03.657Z,98059.27
2018-07-09T03:09:35.246Z,98059.69
2018-07-09T03:10:06.856Z,98062.20
2018-07-09T03:10:38.452Z,98060.48
2018-07-09T03:11:10.032Z,98060.91
2018-07-09T03:11:41.626Z,98063.89
2018-07-09T03:12:13.237Z,98060.91
2018-07-09T03:12:44.844Z,98055.34
2018-07-09T03:13:16.430Z,98059.61
2018-07-09T03:13:48.020Z,98066.01
2018-07-09T03:14:19.605Z,98055.75
2018-07-09T03:14:51.258Z,98063.87
2018-07-09T03:15:22.827Z,98055.75
2018-07-09T03:15:54.426Z,98061.69
2018-07-09T03:16:26.034Z,98060.40
2018-07-09T03:16:57.617Z,98061.26
2018-07-09T03:17:29.225Z,98062.54
2018-07-09T03:18:00.824Z,98066.80
2018-07-09T03:18:32.416Z,98056.57
2018-07-09T03:19:04.077Z,98056.57
2018-07-09T03:19:35.658Z,98057.04
2018-07-09T03:20:07.416Z,98058.75
2018-07-09T03:20:39.026Z,98060.46
2018-07-09T03:21:10.606Z,98061.74
2018-07-09T03:21:42.186Z,98059.13
2018-07-09T03:22:13.776Z,98059.61
2018-07-09T03:22:45.372Z,98055.75
2018-07-09T03:23:16.952Z,98053.61
2018-07-09T03:23:48.525Z,98058.27
2018-07-09T03:24:20.126Z,98059.13
2018-07-09T03:24:51.713Z,98056.55
2018-07-09T03:25:23.333Z,98061.24
2018-07-09T03:25:54.923Z,98062.10
2018-07-09T03:26:26.510Z,98056.55
2018-07-09T03:26:58.091Z,98062.94
2018-07-09T03:27:29.669Z,98065.50
2018-07-09T03:28:01.280Z,98069.36
2018-07-09T03:28:32.880Z,98062.54
2018-07-09T03:29:04.510Z,98064.24
2018-07-09T03:29:36.143Z,98065.09
2018-07-09T03:30:07.721Z,98065.10
2018-07-09T03:30:39.292Z,98064.68
2018-07-09T03:31:10.897Z,98069.38
2018-07-09T03:31:42.510Z,98059.55
2018-07-09T03:32:14.138Z,98066.43
2018-07-09T03:32:45.746Z,98064.26
2018-07-09T03:33:17.339Z,98073.22
2018-07-09T03:33:48.986Z,98069.38
2018-07-09T03:34:20.575Z,98071.14
2018-07-09T03:34:52.177Z,98067.29
2018-07-09T03:35:23.760Z,98070.23
2018-07-09T03:35:55.365Z,98069.00
2018-07-09T03:36:26.959Z,98074.94
2018-07-09T03:36:58.540Z,98072.41
2018-07-09T03:37:30.132Z,98071.14
2018-07-09T03:38:01.804Z,98068.57
2018-07-09T03:38:33.376Z,98074.98
2018-07-09T03:39:04.993Z,98072.00
2018-07-09T03:39:36.591Z,98074.13
2018-07-09T03:40:08.234Z,98067.73
2018-07-09T03:40:39.846Z,98073.70
2018-07-09T03:41:11.448Z,98075.41
2018-07-09T03:41:43.049Z,98073.70
2018-07-09T03:42:14.652Z,98070.28
2018-07-09T03:42:46.232Z,98071.55
2018-07-09T03:43:17.809Z,98072.41
2018-07-09T03:43:49.385Z,98075.80
2018-07-09T03:44:21.029Z,98072.84
2018-07-09T03:44:52.614Z,98071.52
2018-07-09T03:45:24.213Z,98065.95
2018-07-09T03:45:55.792Z,98074.08
2018-07-09T03:46:27.397Z,98072.77
2018-07-09T03:46:58.967Z,98070.64
2018-07-09T03:47:30.539Z,98067.22
2018-07-09T03:48:02.121Z,98063.38
2018-07-09T03:48:33.750Z,98065.08
2018-07-09T03:49:05.317Z,98065.50
2018-07-09T03:49:36.907Z,98070.63
2018-07-09T03:50:08.509Z,98065.03
2018-07-09T03:50:40.090Z,98066.73
2018-07-09T03:51:11.690Z,98070.58
2018-07-09T03:51:43.262Z,98063.31
2018-07-09T03:52:14.861Z,98068.44
2018-07-09T03:52:46.463Z,98064.59
2018-07-09T03:53:18.049Z,98067.59
2018-07-09T03:53:49.669Z,98062.52
2018-07-09T03:54:21.282Z,98068.44
2018-07-09T03:54:52.869Z,98064.61
2018-07-09T03:55:24.452Z,98062.89
2018-07-09T03:55:56.062Z,98066.73
2018-07-09T03:56:27.641Z,98064.17
2018-07-09T03:56:59.226Z,98068.44
2018-07-09T03:57:30.809Z,98073.14
2018-07-09T03:58:02.409Z,98068.02
2018-07-09T03:58:34.015Z,98068.02
2018-07-09T03:59:05.665Z,98068.02
2018-07-09T03:59:37.261Z,98071.44
2018-07-09T04:00:08.865Z,98068.44
2018-07-09T04:00:40.475Z,98069.30
2018-07-09T04:01:12.090Z,98066.31
2018-07-09T04:01:43.677Z,98066.72
2018-07-09T04:02:15.293Z,98071.42
2018-07-09T04:02:46.901Z,98061.17
2018-07-09T04:03:18.506Z,98071.42
2018-07-09T04:03:50.174Z,98063.73
2018-07-09T04:04:21.752Z,98064.58
2018-07-09T04:04:53.353Z,98067.56
2018-07-09T04:05:24.927Z,98068.84
2018-07-09T04:05:56.534Z,98064.52
2018-07-09T04:06:28.137Z,98060.25
2018-07-09T04:06:59.729Z,98069.20
2018-07-09T04:07:31.329Z,98068.77
2018-07-09T04:08:02.933Z,98068.33
2018-07-09T04:08:34.548Z,98065.80
2018-07-09T04:09:06.197Z,98067.89
2018-07-09T04:09:37.768Z,98072.55
2018-07-09T04:10:09.364Z,98069.12
2018-07-09T04:10:40.974Z,98072.52
2018-07-09T04:11:12.581Z,98067.83
2018-07-09T04:11:44.152Z,98072.51
2018-07-09T04:12:15.761Z,98072.51
2018-07-09T04:12:47.345Z,98077.58
2018-07-09T04:13:18.942Z,98075.44
2018-07-09T04:13:50.525Z,98076.30
2018-07-09T04:14:22.147Z,98074.16
2018-07-09T04:14:53.726Z,98075.87
2018-07-09T04:15:25.299Z,98070.33
2018-07-09T04:15:56.901Z,98075.45
2018-07-09T04:16:28.476Z,98075.89
2018-07-09T04:17:00.082Z,98071.60
2018-07-09T04:17:31.655Z,98073.75
2018-07-09T04:18:03.257Z,98074.59
2018-07-09T04:18:34.876Z,98076.72
2018-07-09T04:19:06.481Z,98075.87
2018-07-09T04:19:38.093Z,98075.84
2018-07-09T04:20:09.677Z,98074.98
2018-07-09T04:20:41.267Z,98073.28
2018-07-09T04:21:12.850Z,98075.42
2018-07-09T04:21:44.416Z,98070.70
2018-07-09T04:22:16.052Z,98074.55
2018-07-09T04:22:47.648Z,98069.66
2018-07-09T04:23:19.262Z,98078.55
2018-07-09T04:23:50.832Z,98070.33
2018-07-09T04:24:22.413Z,98068.47
2018-07-09T04:24:53.994Z,98066.78
2018-07-09T04:25:25.618Z,98073.86
2018-07-09T04:25:57.222Z,98074.26
2018-07-09T04:26:28.821Z,98062.12
2018-07-09T04:27:00.419Z,98070.98
2018-07-09T04:27:32.011Z,98069.49
2018-07-09T04:28:03.584Z,98069.55
2018-07-09T04:28:35.152Z,98080.64
2018-07-09T04:29:06.760Z,98079.73
2018-07-09T04:29:38.361Z,98077.06
2018-07-09T04:30:09.933Z,98074.29
2018-07-09T04:30:41.510Z,98077.88
2018-07-09T04:31:13.113Z,98072.49
2018-07-09T04:31:44.777Z,98076.91
2018-07-09T04:32:16.370Z,98072.72
2018-07-09T04:32:47.940Z,98071.05
2018-07-09T04:33:19.539Z,98076.18
2018-07-09T04:33:51.150Z,98080.52
2018-07-09T04:34:22.754Z,98074.11
2018-07-09T04:34:54.389Z,98073.27
2018-07-09T04:35:25.960Z,98079.69
2018-07-09T04:35:57.532Z,98073.69
2018-07-09T04:36:29.139Z,98081.38
2018-07-09T04:37:00.735Z,98075.38
2018-07-09T04:37:32.329Z,98084.88
2018-07-09T04:38:03.930Z,98080.43
2018-07-09T04:38:35.543Z,98084.80
2018-07-09T04:39:07.139Z,98081.20
2018-07-09T04:39:38.722Z,98077.30
2018-07-09T04:40:10.373Z,98071.44
2018-07-09T04:40:41.959Z,98076.77
2018-07-09T04:41:13.555Z,98074.23
2018-07-09T04:41:45.152Z,98070.19
2018-07-09T04:42:16.725Z,98073.38
2018-07-09T04:42:48.312Z,98068.45
2018-07-09T04:43:19.975Z,98074.05
2018-07-09T04:43:51.498Z,98071.01
2018-07-09T04:44:23.081Z,98071.70
2018-07-09T04:44:54.666Z,98070.47
2018-07-09T04:45:26.312Z,98070.92
2018-07-09T04:45:57.884Z,98078.23
2018-07-09T04:46:29.459Z,98081.91
2018-07-09T04:47:01.062Z,98081.69
2018-07-09T04:47:32.650Z,98080.84
2018-07-09T04:48:04.216Z,98082.70
2018-07-09T04:48:35.805Z,98080.89
2018-07-09T04:49:07.385Z,98078.06
2018-07-09T04:49:38.963Z,98081.91
2018-07-09T04:50:10.583Z,98084.09
2018-07-09T04:50:42.180Z,98079.13
2018-07-09T04:51:13.789Z,98080.72
2018-07-09T04:51:45.373Z,98080.92
2018-07-09T04:52:16.967Z,98079.37
2018-07-09T04:52:48.549Z,98081.27
2018-07-09T04:53:20.132Z,98078.83
2018-07-09T04:53:51.745Z,98079.81
2018-07-09T04:54:23.326Z,98078.22
2018-07-09T04:54:54.936Z,98079.14
2018-07-09T04:55:26.566Z,98077.84
2018-07-09T04:55:58.166Z,98080.77
2018-07-09T04:56:29.759Z,98082.75
2018-07-09T04:57:01.338Z,98080.67
2018-07-09T04:57:32.958Z,98080.28
2018-07-09T04:58:04.528Z,98078.20
2018-07-09T04:58:36.109Z,98081.22
2018-07-09T04:59:07.709Z,98082.41
2018-07-09T04:59:39.293Z,98077.94
2018-07-09T05:00:10.884Z,98081.59
2018-07-09T05:00:42.530Z,98079.39
2018-07-09T05:01:14.110Z,98079.31
2018-07-09T05:01:45.693Z,98080.85
2018-07-09T05:02:17.293Z,98076.75
2018-07-09T05:02:48.900Z,98076.92
2018-07-09T05:03:20.491Z,98077.50
2018-07-09T05:03:52.073Z,98075.48
2018-07-09T05:04:23.734Z,98076.42
2018-07-09T05:04:55.321Z,98071.77
2018-07-09T05:05:26.931Z,98072.65
2018-07-09T05:05:58.602Z,98076.49
2018-07-09T05:06:30.215Z,98073.87
2018-07-09T05:07:01.826Z,98078.55
2018-07-09T05:07:33.410Z,98074.88
2018-07-09T05:08:04.976Z,98075.18
2018-07-09T05:08:36.567Z,98075.55
2018-07-09T05:09:08.178Z,98072.83
2018-07-09T05:09:39.765Z,98068.80
2018-07-09T05:10:11.349Z,98073.37
2018-07-09T05:10:42.953Z,98074.57
2018-07-09T05:11:14.557Z,98070.30
2018-07-09T05:11:46.155Z,98068.95
2018-07-09T05:12:17.741Z,98069.78
2018-07-09T05:12:49.341Z,98072.34
2018-07-09T05:13:20.940Z,98062.98
2018-07-09T05:13:52.755Z,98069.88
2018-07-09T05:14:24.333Z,98062.64
2018-07-09T05:14:55.904Z,98063.98
2018-07-09T05:15:27.522Z,98064.84
2018-07-09T05:15:59.125Z,98062.30
2018-07-09T05:16:30.706Z,98065.78
2018-07-09T05:17:02.289Z,98062.95
2018-07-09T05:17:33.921Z,98063.90
2018-07-09T05:18:05.525Z,98064.84
2018-07-09T05:18:37.119Z,98066.22
2018-07-09T05:19:08.712Z,98064.61
2018-07-09T05:19:40.317Z,98061.69
2018-07-09T05:20:11.925Z,98058.73
2018-07-09T05:20:43.608Z,98059.22
2018-07-09T05:21:15.141Z,98059.25
2018-07-09T05:21:46.733Z,98058.47
2018-07-09T05:22:18.341Z,98061.52
2018-07-09T05:22:49.973Z,98063.23
2018-07-09T05:23:21.550Z,98057.70
2018-07-09T05:23:53.155Z,98059.42
2018-07-09T05:24:24.749Z,98054.34
2018-07-09T05:24:56.353Z,98067.59
2018-07-09T05:25:27.927Z,98062.05
2018-07-09T05:25:59.503Z,98053.95
2018-07-09T05:26:31.105Z,98059.92
2018-07-09T05:27:02.695Z,98059.48
2018-07-09T05:27:34.288Z,98058.20
2018-07-09T05:28:05.934Z,98066.33
2018-07-09T05:28:37.542Z,98055.23
2018-07-09T05:29:09.134Z,98056.14
2018-07-09T05:29:40.777Z,98060.41
2018-07-09T05:30:12.381Z,98063.36
2018-07-09T05:30:43.965Z,98063.83
2018-07-09T05:31:15.569Z,98065.11
2018-07-09T05:31:47.173Z,98065.06
2018-07-09T05:32:18.804Z,98062.97
2018-07-09T05:32:50.395Z,98067.20
2018-07-09T05:33:22.071Z,98063.34
2018-07-09T05:33:53.586Z,98065.87
2018-07-09T05:34:25.152Z,98064.19
2018-07-09T05:34:56.793Z,98068.87
2018-07-09T05:35:28.378Z,98069.31
2018-07-09T05:35:59.957Z,98069.30
2018-07-09T05:36:31.531Z,98065.02
2018-07-09T05:37:03.133Z,98065.45
2018-07-09T05:37:34.718Z,98065.87
2018-07-09T05:38:06.366Z,98063.75
2018-07-09T05:38:37.978Z,98068.87
2018-07-09T05:39:09.583Z,98062.45
2018-07-09T05:39:41.166Z,98068.44
2018-07-09T05:40:12.798Z,98063.73
2018-07-09T05:40:44.411Z,98063.33
2018-07-09T05:41:15.984Z,98056.05
2018-07-09T05:41:47.561Z,98064.55
2018-07-09T05:42:19.144Z,98064.55
2018-07-09T05:42:50.732Z,98064.13
2018-07-09T05:43:22.327Z,98066.25
2018-07-09T05:43:53.928Z,98062.41
2018-07-09T05:44:25.529Z,98061.12
2018-07-09T05:44:57.114Z,98065.80
2018-07-09T05:45:28.756Z,98059.83
2018-07-09T05:46:00.365Z,98060.67
2018-07-09T05:46:31.970Z,98061.91
2018-07-09T05:47:03.631Z,98056.39
2018-07-09T05:47:35.186Z,98055.92
2018-07-09T05:48:06.779Z,98062.30
2018-07-09T05:48:38.376Z,98056.31
2018-07-09T05:49:09.944Z,98057.59
2018-07-09T05:49:41.576Z,98055.48
2018-07-09T05:50:13.177Z,98055.91
2018-07-09T05:50:44.782Z,98052.90
2018-07-09T05:51:16.389Z,98055.46
2018-07-09T05:51:47.998Z,98055.05
2018-07-09T05:52:19.586Z,98052.88
2018-07-09T05:52:51.170Z,98048.17
2018-07-09T05:53:22.772Z,98056.24
2018-07-09T05:53:54.406Z,98054.98
2018-07-09T05:54:25.989Z,98057.87
2018-07-09T05:54:57.628Z,98055.09
2018-07-09T05:55:29.213Z,98049.35
2018-07-09T05:56:00.821Z,98054.06
2018-07-09T05:56:32.452Z,98055.36
2018-07-09T05:57:04.034Z,98050.73
2018-07-09T05:57:35.609Z,98055.52
2018-07-09T05:58:07.190Z,98052.19
2018-07-09T05:58:38.823Z,98050.09
2018-07-09T05:59:10.406Z,98050.16
2018-07-09T05:59:41.989Z,98055.37
2018-07-09T06:00:13.600Z,98052.41
2018-07-09T06:00:45.205Z,98050.77
2018-07-09T06:01:16.814Z,98050.77
2018-07-09T06:01:48.384Z,98051.95
2018-07-09T06:02:20.006Z,98050.79
2018-07-09T06:02:51.605Z,98047.00
2018-07-09T06:03:23.186Z,98051.79
2018-07-09T06:03:54.792Z,98056.51
2018-07-09T06:04:26.433Z,98047.17
2018-07-09T06:04:58.033Z,98049.82
2018-07-09T06:05:29.668Z,98049.84
2018-07-09T06:06:01.250Z,98052.04
2018-07-09T06:06:32.829Z,98049.08
2018-07-09T06:07:04.413Z,98048.70
2018-07-09T06:07:36.016Z,98047.44
2018-07-09T06:08:07.616Z,98046.22
2018-07-09T06:08:39.207Z,98053.91
2018-07-09T06:09:10.814Z,98049.67
2018-07-09T06:09:42.441Z,98048.83
2018-07-09T06:10:14.040Z,98051.39
2018-07-09T06:10:45.646Z,98055.72
2018-07-09T06:11:17.299Z,98054.02